sensor_id;sensor_type;location;lat;lon;timestamp;pressure;altitude;pressure_sealevel;temperature;humidity
42511;BME280;28141;51.120;17.114;2023-08-06T00:02:16;100532.60;;;29.93;42.84
42511;BME280;28141;51.120;17.114;2023-08-06T00:05:30;100523.38;;;29.93;41.88
42511;BME280;28141;51.120;17.114;2023-08-06T00:08:44;100513.89;;;29.94;42.89
42511;BME280;28141;51.120;17.114;2023-08-06T00:11:58;100513.89;;;29.94;42.98
42511;BME280;28141;51.120;17.114;2023-08-06T00:15:38;100512.77;;;29.90;42.91
42511;BME280;28141;51.120;17.114;2023-08-06T00:18:52;100509.98;;;29.90;42.23
42511;BME280;28141;51.120;17.114;2023-08-06T00:22:06;100502.72;;;29.94;42.89
42511;BME280;28141;51.120;17.114;2023-08-06T00:25:20;100501.60;;;29.95;43.29
42511;BME280;28141;51.120;17.114;2023-08-06T00:29:00;100492.40;;;29.94;42.83
42511;BME280;28141;51.120;17.114;2023-08-06T00:32:14;100478.19;;;29.96;42.71
42511;BME280;28141;51.120;17.114;2023-08-06T00:35:29;100477.34;;;29.95;42.46
42511;BME280;28141;51.120;17.114;2023-08-06T00:38:43;100470.33;;;29.98;42.29
42511;BME280;28141;51.120;17.114;2023-08-06T00:42:23;100468.09;;;29.95;42.78
42511;BME280;28141;51.120;17.114;2023-08-06T00:45:37;100456.65;;;29.96;43.39
42511;BME280;28141;51.120;17.114;2023-08-06T00:48:51;100442.12;;;29.94;42.82
42511;BME280;28141;51.120;17.114;2023-08-06T00:52:07;100418.95;;;29.94;42.43
42511;BME280;28141;51.120;17.114;2023-08-06T00:55:47;100412.80;;;29.97;42.78
42511;BME280;28141;51.120;17.114;2023-08-06T00:59:03;100405.56;;;29.96;42.77
42511;BME280;28141;51.120;17.114;2023-08-06T01:02:18;100387.10;;;30.00;43.11
42511;BME280;28141;51.120;17.114;2023-08-06T01:05:31;100383.23;;;29.96;43.38
42511;BME280;28141;51.120;17.114;2023-08-06T01:16:06;100358.65;;;29.83;43.43
42511;BME280;28141;51.120;17.114;2023-08-06T01:19:47;100358.06;;;29.91;42.93
42511;BME280;28141;51.120;17.114;2023-08-06T01:23:01;100348.57;;;29.92;42.66
42511;BME280;28141;51.120;17.114;2023-08-06T01:30:20;100337.40;;;29.87;42.94
42511;BME280;28141;51.120;17.114;2023-08-06T01:33:37;100315.91;;;29.87;43.31
42511;BME280;28141;51.120;17.114;2023-08-06T01:36:54;100319.24;;;29.94;42.97
42511;BME280;28141;51.120;17.114;2023-08-06T01:40:34;100322.32;;;29.93;42.84
42511;BME280;28141;51.120;17.114;2023-08-06T01:43:48;100297.19;;;29.93;43.27
42511;BME280;28141;51.120;17.114;2023-08-06T01:47:02;100266.79;;;29.76;42.70
42511;BME280;28141;51.120;17.114;2023-08-06T01:50:16;100299.42;;;29.91;42.11
42511;BME280;28141;51.120;17.114;2023-08-06T01:53:30;100295.80;;;29.90;43.21
42511;BME280;28141;51.120;17.114;2023-08-06T01:57:11;100275.96;;;29.92;42.90
42511;BME280;28141;51.120;17.114;2023-08-06T02:00:25;100283.78;;;29.90;43.57
42511;BME280;28141;51.120;17.114;2023-08-06T02:03:41;100288.80;;;29.93;43.52
42511;BME280;28141;51.120;17.114;2023-08-06T02:06:54;100279.04;;;29.90;43.49
42511;BME280;28141;51.120;17.114;2023-08-06T02:10:35;100280.72;;;29.86;43.01
42511;BME280;28141;51.120;17.114;2023-08-06T02:13:49;100268.18;;;29.84;43.54
42511;BME280;28141;51.120;17.114;2023-08-06T02:17:03;100257.02;;;29.84;44.01
42511;BME280;28141;51.120;17.114;2023-08-06T02:20:17;100255.06;;;29.79;42.87
42511;BME280;28141;51.120;17.114;2023-08-06T02:23:56;100247.81;;;29.78;43.27
42511;BME280;28141;51.120;17.114;2023-08-06T02:27:09;100227.99;;;29.74;43.82
42511;BME280;28141;51.120;17.114;2023-08-06T02:30:23;100223.80;;;29.77;43.46
42511;BME280;28141;51.120;17.114;2023-08-06T02:33:37;100192.30;;;29.71;42.95
42511;BME280;28141;51.120;17.114;2023-08-06T02:37:17;100170.80;;;29.72;43.44
42511;BME280;28141;51.120;17.114;2023-08-06T02:40:31;100169.41;;;29.69;42.90
42511;BME280;28141;51.120;17.114;2023-08-06T02:43:45;100153.84;;;29.63;43.00
42511;BME280;28141;51.120;17.114;2023-08-06T02:46:58;100163.01;;;29.64;43.04
42511;BME280;28141;51.120;17.114;2023-08-06T02:50:40;100164.16;;;29.63;43.59
42511;BME280;28141;51.120;17.114;2023-08-06T02:53:54;100168.07;;;29.57;43.70
42511;BME280;28141;51.120;17.114;2023-08-06T02:57:08;100162.21;;;29.58;43.30
42511;BME280;28141;51.120;17.114;2023-08-06T03:00:22;100158.02;;;29.61;44.06
42511;BME280;28141;51.120;17.114;2023-08-06T03:04:02;100155.52;;;29.54;43.78
42511;BME280;28141;51.120;17.114;2023-08-06T03:07:16;100149.93;;;29.54;43.65
42511;BME280;28141;51.120;17.114;2023-08-06T03:10:30;100156.63;;;29.53;43.70
42511;BME280;28141;51.120;17.114;2023-08-06T03:13:44;100166.16;;;29.52;44.15
42511;BME280;28141;51.120;17.114;2023-08-06T03:17:29;100182.30;;;29.55;43.83
42511;BME280;28141;51.120;17.114;2023-08-06T03:20:42;100170.02;;;29.56;43.92
42511;BME280;28141;51.120;17.114;2023-08-06T03:23:58;100171.42;;;29.54;43.53
42511;BME280;28141;51.120;17.114;2023-08-06T03:27:12;100161.42;;;29.53;43.48
42511;BME280;28141;51.120;17.114;2023-08-06T03:34:16;100141.90;;;29.43;44.22
42511;BME280;28141;51.120;17.114;2023-08-06T03:37:30;100139.94;;;29.43;43.76
42511;BME280;28141;51.120;17.114;2023-08-06T03:40:44;100142.73;;;29.48;44.04
42511;BME280;28141;51.120;17.114;2023-08-06T03:44:24;100143.01;;;29.47;43.97
42511;BME280;28141;51.120;17.114;2023-08-06T03:47:40;100141.05;;;29.47;43.76
42511;BME280;28141;51.120;17.114;2023-08-06T03:50:54;100131.56;;;29.48;43.65
42511;BME280;28141;51.120;17.114;2023-08-06T03:54:08;100129.90;;;29.47;43.69
42511;BME280;28141;51.120;17.114;2023-08-06T03:57:48;100136.87;;;29.50;43.89
42511;BME280;28141;51.120;17.114;2023-08-06T04:01:03;100140.49;;;29.50;43.56
42511;BME280;28141;51.120;17.114;2023-08-06T04:04:17;100141.61;;;29.49;43.93
42511;BME280;28141;51.120;17.114;2023-08-06T04:07:31;100146.30;;;29.54;43.30
42511;BME280;28141;51.120;17.114;2023-08-06T04:11:11;100142.16;;;29.51;43.86
42511;BME280;28141;51.120;17.114;2023-08-06T04:14:27;100137.38;;;29.57;43.64
42511;BME280;28141;51.120;17.114;2023-08-06T04:17:41;100144.07;;;29.56;44.22
42511;BME280;28141;51.120;17.114;2023-08-06T04:20:55;100156.11;;;29.51;43.54
42511;BME280;28141;51.120;17.114;2023-08-06T04:24:10;100150.25;;;29.53;44.08
42511;BME280;28141;51.120;17.114;2023-08-06T04:27:50;100144.40;;;29.49;43.88
42511;BME280;28141;51.120;17.114;2023-08-06T04:31:04;100144.40;;;29.49;43.76
42511;BME280;28141;51.120;17.114;2023-08-06T04:34:17;100144.40;;;29.49;43.69
42511;BME280;28141;51.120;17.114;2023-08-06T04:37:31;100145.52;;;29.48;44.04
42511;BME280;28141;51.120;17.114;2023-08-06T04:41:11;100129.90;;;29.47;43.98
42511;BME280;28141;51.120;17.114;2023-08-06T04:44:25;100119.30;;;29.44;43.96
42511;BME280;28141;51.120;17.114;2023-08-06T04:47:39;100114.55;;;29.45;43.93
42511;BME280;28141;51.120;17.114;2023-08-06T04:50:53;100096.97;;;29.44;44.08
42511;BME280;28141;51.120;17.114;2023-08-06T04:54:34;100095.30;;;29.48;43.98
42511;BME280;28141;51.120;17.114;2023-08-06T04:57:48;100105.34;;;29.44;43.98
42511;BME280;28141;51.120;17.114;2023-08-06T05:01:01;100105.38;;;29.39;43.90
42511;BME280;28141;51.120;17.114;2023-08-06T05:04:15;100114.87;;;29.38;43.80
42511;BME280;28141;51.120;17.114;2023-08-06T05:07:57;100099.25;;;29.37;44.21
42511;BME280;28141;51.120;17.114;2023-08-06T05:11:11;100100.36;;;29.41;44.67
42511;BME280;28141;51.120;17.114;2023-08-06T05:14:25;100095.89;;;29.40;44.40
42511;BME280;28141;51.120;17.114;2023-08-06T05:17:38;100094.75;;;29.36;44.13
42511;BME280;28141;51.120;17.114;2023-08-06T05:21:18;100086.12;;;29.32;44.29
42511;BME280;28141;51.120;17.114;2023-08-06T05:24:32;100074.68;;;29.34;44.34
42511;BME280;28141;51.120;17.114;2023-08-06T05:27:46;100081.92;;;29.35;44.54
42511;BME280;28141;51.120;17.114;2023-08-06T05:31:04;100081.40;;;29.38;44.46
42511;BME280;28141;51.120;17.114;2023-08-06T05:34:44;100069.93;;;29.34;44.36
42511;BME280;28141;51.120;17.114;2023-08-06T05:37:58;100062.98;;;29.37;44.51
42511;BME280;28141;51.120;17.114;2023-08-06T05:41:12;100084.99;;;29.33;44.64
42511;BME280;28141;51.120;17.114;2023-08-06T05:44:27;100087.54;;;29.30;44.61
42511;BME280;28141;51.120;17.114;2023-08-06T05:48:08;100070.22;;;29.33;44.44
42511;BME280;28141;51.120;17.114;2023-08-06T05:51:23;100054.03;;;29.35;44.78
42511;BME280;28141;51.120;17.114;2023-08-06T05:54:37;100049.57;;;29.34;44.56
42511;BME280;28141;51.120;17.114;2023-08-06T05:57:51;100025.86;;;29.31;44.98
42511;BME280;28141;51.120;17.114;2023-08-06T06:01:31;100047.65;;;29.29;44.54
42511;BME280;28141;51.120;17.114;2023-08-06T06:04:45;100071.05;;;29.33;44.58
42511;BME280;28141;51.120;17.114;2023-08-06T06:07:59;100070.26;;;29.28;45.05
42511;BME280;28141;51.120;17.114;2023-08-06T06:11:13;100076.34;;;29.35;44.37
42511;BME280;28141;51.120;17.114;2023-08-06T06:14:54;100065.20;;;29.35;44.53
42511;BME280;28141;51.120;17.114;2023-08-06T06:18:08;100060.73;;;29.34;44.25
42511;BME280;28141;51.120;17.114;2023-08-06T06:21:22;100078.84;;;29.36;44.47
42511;BME280;28141;51.120;17.114;2023-08-06T06:24:36;100100.66;;;29.29;44.34
42511;BME280;28141;51.120;17.114;2023-08-06T06:28:16;100112.05;;;29.33;44.65
42511;BME280;28141;51.120;17.114;2023-08-06T06:31:30;100096.43;;;29.32;44.44
42511;BME280;28141;51.120;17.114;2023-08-06T06:34:44;100071.88;;;29.34;44.36
42511;BME280;28141;51.120;17.114;2023-08-06T06:37:57;100049.59;;;29.39;44.38
42511;BME280;28141;51.120;17.114;2023-08-06T06:41:40;100050.41;;;29.34;44.60
42511;BME280;28141;51.120;17.114;2023-08-06T06:44:54;100052.91;;;29.36;44.62
42511;BME280;28141;51.120;17.114;2023-08-06T06:48:08;100058.54;;;29.31;44.91
42511;BME280;28141;51.120;17.114;2023-08-06T06:51:21;100060.73;;;29.34;44.64
42511;BME280;28141;51.120;17.114;2023-08-06T06:55:01;100066.85;;;29.36;44.77
42511;BME280;28141;51.120;17.114;2023-08-06T06:58:15;100064.91;;;29.36;44.87
42511;BME280;28141;51.120;17.114;2023-08-06T07:01:30;100057.94;;;29.34;44.70
42511;BME280;28141;51.120;17.114;2023-08-06T07:04:43;100060.15;;;29.42;44.73
42511;BME280;28141;51.120;17.114;2023-08-06T07:08:23;100057.07;;;29.44;44.76
42511;BME280;28141;51.120;17.114;2023-08-06T07:11:37;100050.66;;;29.43;44.82
42511;BME280;28141;51.120;17.114;2023-08-06T07:14:51;100043.41;;;29.42;44.82
42511;BME280;28141;51.120;17.114;2023-08-06T07:18:05;100051.49;;;29.44;44.71
42511;BME280;28141;51.120;17.114;2023-08-06T07:21:46;100031.13;;;29.43;44.77
42511;BME280;28141;51.120;17.114;2023-08-06T07:25:00;100011.02;;;29.46;45.04
42511;BME280;28141;51.120;17.114;2023-08-06T07:28:14;100024.98;;;29.46;44.96
42511;BME280;28141;51.120;17.114;2023-08-06T07:31:28;100043.38;;;29.52;44.83
42511;BME280;28141;51.120;17.114;2023-08-06T07:35:09;100035.57;;;29.49;44.72
42511;BME280;28141;51.120;17.114;2023-08-06T07:38:30;100036.12;;;29.51;44.65
42511;BME280;28141;51.120;17.114;2023-08-06T07:41:43;100022.17;;;29.51;44.76
42511;BME280;28141;51.120;17.114;2023-08-06T07:44:59;100008.79;;;29.48;45.15
42511;BME280;28141;51.120;17.114;2023-08-06T07:48:13;100010.17;;;29.51;44.69
42511;BME280;28141;51.120;17.114;2023-08-06T07:51:53;100018.82;;;29.49;44.82
42511;BME280;28141;51.120;17.114;2023-08-06T07:55:08;100028.87;;;29.50;44.46
42511;BME280;28141;51.120;17.114;2023-08-06T07:58:23;100011.29;;;29.50;44.75
42511;BME280;28141;51.120;17.114;2023-08-06T08:01:38;100002.03;;;29.54;44.99
42511;BME280;28141;51.120;17.114;2023-08-06T08:05:18;99978.87;;;29.54;44.78
42511;BME280;28141;51.120;17.114;2023-08-06T08:08:33;99982.55;;;29.49;44.86
42511;BME280;28141;51.120;17.114;2023-08-06T08:12:46;99966.08;;;29.53;44.66
42511;BME280;28141;51.120;17.114;2023-08-06T08:16:02;99955.77;;;29.48;45.08
42511;BME280;28141;51.120;17.114;2023-08-06T08:19:16;99945.73;;;29.47;44.31
42511;BME280;28141;51.120;17.114;2023-08-06T08:22:30;99928.97;;;29.52;44.41
42511;BME280;28141;51.120;17.114;2023-08-06T08:26:12;99919.44;;;29.53;44.91
42511;BME280;28141;51.120;17.114;2023-08-06T08:29:26;99929.80;;;29.53;44.75
42511;BME280;28141;51.120;17.114;2023-08-06T08:32:40;99925.34;;;29.52;45.24
42511;BME280;28141;51.120;17.114;2023-08-06T08:35:53;99929.20;;;29.56;45.53
42511;BME280;28141;51.120;17.114;2023-08-06T08:39:33;99932.87;;;29.51;45.01
42511;BME280;28141;51.120;17.114;2023-08-06T08:42:47;99942.07;;;29.52;45.18
42511;BME280;28141;51.120;17.114;2023-08-06T08:46:02;99946.54;;;29.53;44.37
42511;BME280;28141;51.120;17.114;2023-08-06T08:49:18;99938.37;;;29.61;44.41
42511;BME280;28141;51.120;17.114;2023-08-06T08:53:00;99935.58;;;29.61;44.96
42511;BME280;28141;51.120;17.114;2023-08-06T08:56:15;99926.40;;;29.56;44.98
42511;BME280;28141;51.120;17.114;2023-08-06T08:59:30;99915.23;;;29.56;45.67
42511;BME280;28141;51.120;17.114;2023-08-06T09:02:44;99921.02;;;29.64;44.11
42511;BME280;28141;51.120;17.114;2023-08-06T09:06:28;99920.79;;;29.61;44.98
42511;BME280;28141;51.120;17.114;2023-08-06T09:09:47;99913.80;;;29.63;44.76
42511;BME280;28141;51.120;17.114;2023-08-06T09:13:02;99920.73;;;29.66;45.16
42511;BME280;28141;51.120;17.114;2023-08-06T09:16:17;99925.18;;;29.67;44.33
42511;BME280;28141;51.120;17.114;2023-08-06T09:19:57;99927.44;;;29.65;44.98
42511;BME280;28141;51.120;17.114;2023-08-06T09:23:11;99928.81;;;29.67;45.28
42511;BME280;28141;51.120;17.114;2023-08-06T09:26:33;99913.80;;;29.63;45.09
42511;BME280;28141;51.120;17.114;2023-08-06T09:29:47;99912.07;;;29.67;44.75
42511;BME280;28141;51.120;17.114;2023-08-06T09:33:29;99921.08;;;29.59;45.05
42511;BME280;28141;51.120;17.114;2023-08-06T09:36:46;99912.65;;;29.64;44.54
42511;BME280;28141;51.120;17.114;2023-08-06T11:23:17;99836.70;;;27.71;54.47
42511;BME280;28141;51.120;17.114;2023-08-06T11:26:31;99833.11;;;28.50;51.34
42511;BME280;28141;51.120;17.114;2023-08-06T11:29:46;99833.42;;;28.92;48.64
42511;BME280;28141;51.120;17.114;2023-08-06T11:33:00;99832.98;;;29.14;47.21
42511;BME280;28141;51.120;17.114;2023-08-06T11:36:41;99823.70;;;29.24;47.31
42511;BME280;28141;51.120;17.114;2023-08-06T11:39:55;99825.27;;;29.35;46.72
42511;BME280;28141;51.120;17.114;2023-08-06T11:43:14;99830.30;;;29.38;45.96
42511;BME280;28141;51.120;17.114;2023-08-06T11:46:28;99829.17;;;29.39;46.84
42511;BME280;28141;51.120;17.114;2023-08-06T11:50:09;99839.05;;;29.55;46.41
42511;BME280;28141;51.120;17.114;2023-08-06T11:53:28;99840.18;;;29.54;46.65
42511;BME280;28141;51.120;17.114;2023-08-06T11:56:43;99836.52;;;29.59;46.16
42511;BME280;28141;51.120;17.114;2023-08-06T11:59:56;99844.89;;;29.59;46.29
42511;BME280;28141;51.120;17.114;2023-08-06T12:03:40;99852.97;;;29.60;46.09
42511;BME280;28141;51.120;17.114;2023-08-06T12:06:54;99856.41;;;29.52;46.06
42511;BME280;28141;51.120;17.114;2023-08-06T12:10:08;99856.09;;;29.54;45.61
42511;BME280;28141;51.120;17.114;2023-08-06T12:13:23;99862.77;;;29.58;46.38
42511;BME280;28141;51.120;17.114;2023-08-06T12:16:36;99867.80;;;29.56;45.64
42511;BME280;28141;51.120;17.114;2023-08-06T12:20:16;99872.00;;;29.53;46.03
42511;BME280;28141;51.120;17.114;2023-08-06T12:23:30;99875.88;;;29.57;46.20
42511;BME280;28141;51.120;17.114;2023-08-06T12:26:46;99876.45;;;29.54;45.82
42511;BME280;28141;51.120;17.114;2023-08-06T12:30:00;99880.08;;;29.55;45.96
42511;BME280;28141;51.120;17.114;2023-08-06T12:33:40;99889.35;;;29.50;46.14
42511;BME280;28141;51.120;17.114;2023-08-06T12:36:54;99882.36;;;29.53;45.50
42511;BME280;28141;51.120;17.114;2023-08-06T12:40:08;99894.09;;;29.50;46.23
42511;BME280;28141;51.120;17.114;2023-08-06T12:43:22;99892.70;;;29.52;45.74
42511;BME280;28141;51.120;17.114;2023-08-06T12:47:02;99909.42;;;29.52;46.13
42511;BME280;28141;51.120;17.114;2023-08-06T12:50:16;99903.30;;;29.50;46.14
42511;BME280;28141;51.120;17.114;2023-08-06T12:53:30;99909.66;;;29.56;45.77
42511;BME280;28141;51.120;17.114;2023-08-06T12:56:45;99904.37;;;29.54;45.88
42511;BME280;28141;51.120;17.114;2023-08-06T13:00:26;99911.07;;;29.53;46.22
42511;BME280;28141;51.120;17.114;2023-08-06T13:03:40;99908.82;;;29.55;46.09
42511;BME280;28141;51.120;17.114;2023-08-06T13:06:54;99920.82;;;29.56;46.51
42511;BME280;28141;51.120;17.114;2023-08-06T13:10:08;99927.80;;;29.53;46.14
42511;BME280;28141;51.120;17.114;2023-08-06T13:13:48;99926.16;;;29.52;46.34
42511;BME280;28141;51.120;17.114;2023-08-06T13:17:02;99927.80;;;29.53;46.47
42511;BME280;28141;51.120;17.114;2023-08-06T13:20:20;99937.77;;;29.64;46.27
42511;BME280;28141;51.120;17.114;2023-08-06T13:23:36;99930.48;;;29.68;45.41
42511;BME280;28141;51.120;17.114;2023-08-06T13:27:16;99937.73;;;29.69;46.01
42511;BME280;28141;51.120;17.114;2023-08-06T13:30:30;99944.18;;;29.65;46.00
42511;BME280;28141;51.120;17.114;2023-08-06T13:33:44;99942.83;;;29.62;46.29
42511;BME280;28141;51.120;17.114;2023-08-06T13:36:58;99947.28;;;29.63;45.36
42511;BME280;28141;51.120;17.114;2023-08-06T13:40:39;99961.53;;;29.62;46.11
42511;BME280;28141;51.120;17.114;2023-08-06T13:43:53;99950.95;;;29.59;46.08
42511;BME280;28141;51.120;17.114;2023-08-06T13:47:07;99960.15;;;29.59;46.15
42511;BME280;28141;51.120;17.114;2023-08-06T13:50:21;99977.47;;;29.56;46.52
42511;BME280;28141;51.120;17.114;2023-08-06T13:54:04;99975.71;;;29.65;46.18
42511;BME280;28141;51.120;17.114;2023-08-06T13:57:24;99974.02;;;29.69;46.13
42511;BME280;28141;51.120;17.114;2023-08-06T14:00:38;99976.18;;;29.77;46.25
42511;BME280;28141;51.120;17.114;2023-08-06T14:03:52;99981.77;;;29.77;45.81
42511;BME280;28141;51.120;17.114;2023-08-06T14:07:33;99988.18;;;29.78;45.91
42511;BME280;28141;51.120;17.114;2023-08-06T14:10:47;99975.89;;;29.79;45.49
42511;BME280;28141;51.120;17.114;2023-08-06T14:14:01;99980.84;;;29.87;45.29
42511;BME280;28141;51.120;17.114;2023-08-06T14:17:15;99987.32;;;29.83;44.78
42511;BME280;28141;51.120;17.114;2023-08-06T14:20:56;99992.06;;;29.82;45.77
42511;BME280;28141;51.120;17.114;2023-08-06T14:24:10;99989.02;;;29.78;46.24
42511;BME280;28141;51.120;17.114;2023-08-06T14:27:24;99990.20;;;29.72;45.88
42511;BME280;28141;51.120;17.114;2023-08-06T14:30:38;99998.28;;;29.74;46.33
42511;BME280;28141;51.120;17.114;2023-08-06T14:34:18;100003.61;;;29.70;45.99
42511;BME280;28141;51.120;17.114;2023-08-06T14:37:32;99997.73;;;29.72;45.70
42511;BME280;28141;51.120;17.114;2023-08-06T14:40:46;99996.89;;;29.71;46.26
42511;BME280;28141;51.120;17.114;2023-08-06T14:44:01;100003.55;;;29.75;46.03
42511;BME280;28141;51.120;17.114;2023-08-06T14:47:40;100010.31;;;29.69;46.04
42511;BME280;28141;51.120;17.114;2023-08-06T14:50:54;100009.96;;;29.76;46.63
42511;BME280;28141;51.120;17.114;2023-08-06T14:54:08;100006.40;;;29.70;45.03
42511;BME280;28141;51.120;17.114;2023-08-06T14:57:22;100014.80;;;29.65;46.52
42511;BME280;28141;51.120;17.114;2023-08-06T15:01:07;100018.62;;;29.74;46.07
42511;BME280;28141;51.120;17.114;2023-08-06T15:04:21;100012.44;;;29.83;46.23
42511;BME280;28141;51.120;17.114;2023-08-06T15:07:37;100011.63;;;29.77;45.70
42511;BME280;28141;51.120;17.114;2023-08-06T15:10:52;100010.57;;;29.73;46.65
42511;BME280;28141;51.120;17.114;2023-08-06T15:14:32;100020.22;;;29.86;45.81
42511;BME280;28141;51.120;17.114;2023-08-06T15:17:46;100031.46;;;29.75;46.31
42511;BME280;28141;51.120;17.114;2023-08-06T15:21:00;100037.86;;;29.81;46.66
42511;BME280;28141;51.120;17.114;2023-08-06T15:24:14;100041.42;;;29.87;46.26
42511;BME280;28141;51.120;17.114;2023-08-06T15:27:54;100055.99;;;29.84;45.69
42511;BME280;28141;51.120;17.114;2023-08-06T15:31:08;100047.92;;;29.77;45.12
42511;BME280;28141;51.120;17.114;2023-08-06T15:34:23;100046.52;;;29.80;45.60
42511;BME280;28141;51.120;17.114;2023-08-06T15:37:37;100054.32;;;29.83;45.34
42511;BME280;28141;51.120;17.114;2023-08-06T15:41:17;100057.42;;;29.76;45.87
42511;BME280;28141;51.120;17.114;2023-08-06T15:44:31;100057.35;;;29.86;45.56
42511;BME280;28141;51.120;17.114;2023-08-06T15:47:45;100063.48;;;29.88;45.47
42511;BME280;28141;51.120;17.114;2023-08-06T15:50:59;100064.13;;;29.75;45.86
42511;BME280;28141;51.120;17.114;2023-08-06T15:54:39;100068.59;;;29.76;45.80
42511;BME280;28141;51.120;17.114;2023-08-06T15:57:53;100061.65;;;29.73;45.98
42511;BME280;28141;51.120;17.114;2023-08-06T16:01:07;100054.62;;;29.76;45.70
42511;BME280;28141;51.120;17.114;2023-08-06T16:04:21;100065.56;;;29.72;45.30
42511;BME280;28141;51.120;17.114;2023-08-06T16:08:04;100053.28;;;29.73;45.84
42511;BME280;28141;51.120;17.114;2023-08-06T16:11:18;100059.14;;;29.72;45.97
42511;BME280;28141;51.120;17.114;2023-08-06T16:14:31;100069.13;;;29.78;45.74
42511;BME280;28141;51.120;17.114;2023-08-06T16:17:46;100079.46;;;29.77;45.02
42511;BME280;28141;51.120;17.114;2023-08-06T16:21:30;100082.03;;;29.74;45.72
42511;BME280;28141;51.120;17.114;2023-08-06T16:24:44;100073.09;;;29.72;46.10
42511;BME280;28141;51.120;17.114;2023-08-06T16:27:59;100088.46;;;29.69;45.38
42511;BME280;28141;51.120;17.114;2023-08-06T16:31:12;100092.95;;;29.65;45.64
42511;BME280;28141;51.120;17.114;2023-08-06T16:34:52;100107.16;;;29.69;45.83
42511;BME280;28141;51.120;17.114;2023-08-06T16:38:09;100103.28;;;29.65;46.09
42511;BME280;28141;51.120;17.114;2023-08-06T16:41:24;100113.04;;;29.67;46.30
42511;BME280;28141;51.120;17.114;2023-08-06T16:44:38;100121.45;;;29.62;45.47
42511;BME280;28141;51.120;17.114;2023-08-06T16:47:54;100128.70;;;29.63;46.50
42511;BME280;28141;51.120;17.114;2023-08-06T16:51:34;100122.24;;;29.68;45.93
42511;BME280;28141;51.120;17.114;2023-08-06T16:54:48;100119.72;;;29.71;46.20
42511;BME280;28141;51.120;17.114;2023-08-06T16:58:03;100121.95;;;29.69;45.62
42511;BME280;28141;51.120;17.114;2023-08-06T17:01:17;100120.34;;;29.63;45.74
42511;BME280;28141;51.120;17.114;2023-08-06T17:04:57;100130.11;;;29.61;45.83
42511;BME280;28141;51.120;17.114;2023-08-06T17:08:11;100138.21;;;29.57;45.46
42511;BME280;28141;51.120;17.114;2023-08-06T17:11:25;100135.15;;;29.54;45.92
42511;BME280;28141;51.120;17.114;2023-08-06T17:14:39;100148.82;;;29.55;45.85
42511;BME280;28141;51.120;17.114;2023-08-06T17:18:18;100169.47;;;29.54;46.11
42511;BME280;28141;51.120;17.114;2023-08-06T17:21:32;100176.17;;;29.58;46.20
42511;BME280;28141;51.120;17.114;2023-08-06T17:24:48;100175.06;;;29.54;46.57
42511;BME280;28141;51.120;17.114;2023-08-06T17:28:02;100183.14;;;29.56;46.23
42511;BME280;28141;51.120;17.114;2023-08-06T17:31:45;100187.65;;;29.52;46.06
42511;BME280;28141;51.120;17.114;2023-08-06T17:34:59;100181.19;;;29.56;45.94
42511;BME280;28141;51.120;17.114;2023-08-06T17:38:13;100177.61;;;29.51;45.92
42511;BME280;28141;51.120;17.114;2023-08-06T17:41:27;100168.39;;;29.50;46.12
42511;BME280;28141;51.120;17.114;2023-08-06T17:45:08;100165.33;;;29.47;45.98
42511;BME280;28141;51.120;17.114;2023-08-06T17:48:22;100158.63;;;29.48;46.64
42511;BME280;28141;51.120;17.114;2023-08-06T17:51:36;100158.36;;;29.44;46.10
42511;BME280;28141;51.120;17.114;2023-08-06T17:54:50;100151.66;;;29.45;46.23
42511;BME280;28141;51.120;17.114;2023-08-06T17:58:30;100166.16;;;29.47;45.99
42511;BME280;28141;51.120;17.114;2023-08-06T18:01:45;100172.03;;;29.46;46.24
42511;BME280;28141;51.120;17.114;2023-08-06T18:04:59;100167.84;;;29.43;45.38
42511;BME280;28141;51.120;17.114;2023-08-06T18:08:13;100177.33;;;29.52;45.71
42511;BME280;28141;51.120;17.114;2023-08-06T18:11:53;100179.00;;;29.43;45.99
42511;BME280;28141;51.120;17.114;2023-08-06T18:15:08;100173.43;;;29.43;45.99
42511;BME280;28141;51.120;17.114;2023-08-06T18:18:24;100173.42;;;29.48;46.59
42511;BME280;28141;51.120;17.114;2023-08-06T18:21:39;100179.60;;;29.40;45.97
42511;BME280;28141;51.120;17.114;2023-08-06T18:25:18;100188.52;;;29.37;46.04
42511;BME280;28141;51.120;17.114;2023-08-06T18:28:32;100189.92;;;29.39;46.45
42511;BME280;28141;51.120;17.114;2023-08-06T18:31:46;100193.55;;;29.40;46.09
42511;BME280;28141;51.120;17.114;2023-08-06T18:35:00;100196.89;;;29.37;46.53
42511;BME280;28141;51.120;17.114;2023-08-06T18:38:43;100200.22;;;29.34;46.18
42511;BME280;28141;51.120;17.114;2023-08-06T18:41:57;100205.24;;;29.32;46.17
42511;BME280;28141;51.120;17.114;2023-08-06T18:45:11;100208.87;;;29.32;45.81
42511;BME280;28141;51.120;17.114;2023-08-06T18:48:25;100211.66;;;29.32;46.09
42511;BME280;28141;51.120;17.114;2023-08-06T18:52:06;100222.56;;;29.29;46.29
42511;BME280;28141;51.120;17.114;2023-08-06T18:55:20;100212.77;;;29.31;46.66
42511;BME280;28141;51.120;17.114;2023-08-06T18:58:34;100208.89;;;29.27;46.47
42511;BME280;28141;51.120;17.114;2023-08-06T19:01:48;100216.15;;;29.28;46.10
42511;BME280;28141;51.120;17.114;2023-08-06T19:05:31;100215.59;;;29.26;46.29
42511;BME280;28141;51.120;17.114;2023-08-06T19:08:45;100212.24;;;29.24;46.62
42511;BME280;28141;51.120;17.114;2023-08-06T19:11:59;100214.19;;;29.24;46.29
42511;BME280;28141;51.120;17.114;2023-08-06T19:15:13;100208.62;;;29.29;46.54
42511;BME280;28141;51.120;17.114;2023-08-06T19:18:53;100209.45;;;29.24;46.36